sensor_id;sensor_type;location;lat;lon;timestamp;P1;durP1;ratioP1;P2;durP2;ratioP2
10947;SDS011;5526;42.070;24.752;2022-08-23T00:01:52;24.83;;;22.45;;
10947;SDS011;5526;42.070;24.752;2022-08-23T00:04:21;25.80;;;23.40;;
10947;SDS011;5526;42.070;24.752;2022-08-23T00:06:51;25.85;;;23.48;;
10947;SDS011;5526;42.070;24.752;2022-08-23T00:09:19;25.17;;;22.65;;
10947;SDS011;5526;42.070;24.752;2022-08-23T00:11:48;24.50;;;22.30;;
10947;SDS011;5526;42.070;24.752;2022-08-23T00:14:18;24.60;;;22.40;;
10947;SDS011;5526;42.070;24.752;2022-08-23T00:16:46;25.80;;;23.27;;
10947;SDS011;5526;42.070;24.752;2022-08-23T00:19:15;26.23;;;23.83;;
10947;SDS011;5526;42.070;24.752;2022-08-23T00:21:43;27.02;;;24.55;;
10947;SDS011;5526;42.070;24.752;2022-08-23T00:24:14;28.27;;;25.88;;
10947;SDS011;5526;42.070;24.752;2022-08-23T00:26:49;29.40;;;26.65;;
10947;SDS011;5526;42.070;24.752;2022-08-23T00:29:17;29.92;;;27.25;;
10947;SDS011;5526;42.070;24.752;2022-08-23T00:31:45;30.70;;;27.90;;
10947;SDS011;5526;42.070;24.752;2022-08-23T00:34:12;30.75;;;27.75;;
10947;SDS011;5526;42.070;24.752;2022-08-23T00:36:39;31.20;;;28.20;;
10947;SDS011;5526;42.070;24.752;2022-08-23T00:39:09;30.83;;;27.85;;
10947;SDS011;5526;42.070;24.752;2022-08-23T00:41:37;30.25;;;27.38;;
10947;SDS011;5526;42.070;24.752;2022-08-23T00:44:05;31.42;;;28.35;;
10947;SDS011;5526;42.070;24.752;2022-08-23T00:46:58;31.48;;;28.10;;
10947;SDS011;5526;42.070;24.752;2022-08-23T00:49:43;28.88;;;26.27;;
10947;SDS011;5526;42.070;24.752;2022-08-23T00:52:14;26.58;;;24.10;;
10947;SDS011;5526;42.070;24.752;2022-08-23T00:54:47;27.40;;;24.88;;
10947;SDS011;5526;42.070;24.752;2022-08-23T00:57:21;26.92;;;24.48;;
10947;SDS011;5526;42.070;24.752;2022-08-23T00:59:48;26.85;;;24.40;;
10947;SDS011;5526;42.070;24.752;2022-08-23T01:02:16;26.58;;;23.98;;
10947;SDS011;5526;42.070;24.752;2022-08-23T01:04:44;25.17;;;22.73;;
10947;SDS011;5526;42.070;24.752;2022-08-23T01:07:16;22.77;;;20.73;;
10947;SDS011;5526;42.070;24.752;2022-08-23T01:09:52;21.48;;;19.38;;
10947;SDS011;5526;42.070;24.752;2022-08-23T01:12:26;20.83;;;18.83;;
10947;SDS011;5526;42.070;24.752;2022-08-23T01:14:57;21.33;;;19.23;;
10947;SDS011;5526;42.070;24.752;2022-08-23T01:17:27;22.25;;;20.00;;
10947;SDS011;5526;42.070;24.752;2022-08-23T01:20:00;22.00;;;20.00;;
10947;SDS011;5526;42.070;24.752;2022-08-23T01:22:33;21.88;;;19.95;;
10947;SDS011;5526;42.070;24.752;2022-08-23T01:25:07;22.77;;;20.58;;
10947;SDS011;5526;42.070;24.752;2022-08-23T01:27:37;20.83;;;18.75;;
10947;SDS011;5526;42.070;24.752;2022-08-23T01:30:05;19.15;;;17.30;;
10947;SDS011;5526;42.070;24.752;2022-08-23T01:32:35;19.75;;;17.95;;
10947;SDS011;5526;42.070;24.752;2022-08-23T01:35:06;18.80;;;17.05;;
10947;SDS011;5526;42.070;24.752;2022-08-23T01:37:34;19.30;;;17.40;;
10947;SDS011;5526;42.070;24.752;2022-08-23T01:40:01;19.02;;;17.02;;
10947;SDS011;5526;42.070;24.752;2022-08-23T01:42:30;18.42;;;16.67;;
10947;SDS011;5526;42.070;24.752;2022-08-23T01:44:57;18.98;;;17.30;;
10947;SDS011;5526;42.070;24.752;2022-08-23T01:47:24;19.42;;;17.45;;
10947;SDS011;5526;42.070;24.752;2022-08-23T01:49:51;20.30;;;18.40;;
10947;SDS011;5526;42.070;24.752;2022-08-23T01:52:18;19.70;;;17.70;;
10947;SDS011;5526;42.070;24.752;2022-08-23T01:54:45;19.40;;;17.50;;
10947;SDS011;5526;42.070;24.752;2022-08-23T01:57:12;18.27;;;16.67;;
10947;SDS011;5526;42.070;24.752;2022-08-23T01:59:41;19.08;;;17.38;;
10947;SDS011;5526;42.070;24.752;2022-08-23T02:02:08;19.25;;;17.55;;
10947;SDS011;5526;42.070;24.752;2022-08-23T02:04:35;20.83;;;18.83;;
10947;SDS011;5526;42.070;24.752;2022-08-23T02:07:02;19.75;;;17.98;;
10947;SDS011;5526;42.070;24.752;2022-08-23T02:09:29;21.17;;;19.25;;
10947;SDS011;5526;42.070;24.752;2022-08-23T02:11:57;21.13;;;18.98;;
10947;SDS011;5526;42.070;24.752;2022-08-23T02:14:24;22.60;;;20.50;;
10947;SDS011;5526;42.070;24.752;2022-08-23T02:16:53;21.60;;;19.60;;
10947;SDS011;5526;42.070;24.752;2022-08-23T02:19:22;22.95;;;20.75;;
10947;SDS011;5526;42.070;24.752;2022-08-23T02:21:49;22.00;;;19.95;;
10947;SDS011;5526;42.070;24.752;2022-08-23T02:24:18;21.13;;;19.23;;
10947;SDS011;5526;42.070;24.752;2022-08-23T02:26:47;20.55;;;18.55;;
10947;SDS011;5526;42.070;24.752;2022-08-23T02:29:17;20.70;;;18.80;;
10947;SDS011;5526;42.070;24.752;2022-08-23T02:31:46;21.38;;;19.27;;
10947;SDS011;5526;42.070;24.752;2022-08-23T02:34:15;20.80;;;18.88;;
10947;SDS011;5526;42.070;24.752;2022-08-23T02:36:44;20.85;;;19.00;;
10947;SDS011;5526;42.070;24.752;2022-08-23T02:39:11;20.52;;;18.55;;
10947;SDS011;5526;42.070;24.752;2022-08-23T02:41:40;19.48;;;17.67;;
10947;SDS011;5526;42.070;24.752;2022-08-23T02:44:07;18.45;;;16.67;;
10947;SDS011;5526;42.070;24.752;2022-08-23T02:46:35;19.02;;;17.23;;
10947;SDS011;5526;42.070;24.752;2022-08-23T02:49:02;17.67;;;16.10;;
10947;SDS011;5526;42.070;24.752;2022-08-23T02:51:31;17.00;;;15.40;;
10947;SDS011;5526;42.070;24.752;2022-08-23T02:53:58;15.68;;;14.30;;
10947;SDS011;5526;42.070;24.752;2022-08-23T02:56:25;16.52;;;15.02;;
10947;SDS011;5526;42.070;24.752;2022-08-23T02:58:52;16.50;;;14.95;;
10947;SDS011;5526;42.070;24.752;2022-08-23T03:01:20;16.92;;;15.43;;
10947;SDS011;5526;42.070;24.752;2022-08-23T03:03:49;17.15;;;15.65;;
10947;SDS011;5526;42.070;24.752;2022-08-23T03:06:16;16.17;;;14.77;;
10947;SDS011;5526;42.070;24.752;2022-08-23T03:08:45;14.52;;;13.23;;
10947;SDS011;5526;42.070;24.752;2022-08-23T03:11:12;15.18;;;13.82;;
10947;SDS011;5526;42.070;24.752;2022-08-23T03:13:40;14.25;;;12.95;;
10947;SDS011;5526;42.070;24.752;2022-08-23T03:16:10;14.75;;;13.45;;
10947;SDS011;5526;42.070;24.752;2022-08-23T03:18:38;13.65;;;12.45;;
10947;SDS011;5526;42.070;24.752;2022-08-23T03:21:05;13.77;;;12.50;;
10947;SDS011;5526;42.070;24.752;2022-08-23T03:23:33;13.48;;;12.27;;
10947;SDS011;5526;42.070;24.752;2022-08-23T03:26:03;12.85;;;11.68;;
10947;SDS011;5526;42.070;24.752;2022-08-23T03:28:32;12.68;;;11.48;;
10947;SDS011;5526;42.070;24.752;2022-08-23T03:30:59;11.20;;;10.20;;
10947;SDS011;5526;42.070;24.752;2022-08-23T03:33:27;12.00;;;10.90;;
10947;SDS011;5526;42.070;24.752;2022-08-23T03:35:56;10.75;;;9.75;;
10947;SDS011;5526;42.070;24.752;2022-08-23T03:38:24;10.45;;;9.63;;
10947;SDS011;5526;42.070;24.752;2022-08-23T03:40:51;10.43;;;9.60;;
10947;SDS011;5526;42.070;24.752;2022-08-23T03:43:20;10.65;;;9.70;;
10947;SDS011;5526;42.070;24.752;2022-08-23T03:45:47;10.68;;;9.77;;
10947;SDS011;5526;42.070;24.752;2022-08-23T03:48:14;10.73;;;9.82;;
10947;SDS011;5526;42.070;24.752;2022-08-23T03:50:41;10.48;;;9.57;;
10947;SDS011;5526;42.070;24.752;2022-08-23T03:53:09;9.82;;;9.02;;
10947;SDS011;5526;42.070;24.752;2022-08-23T03:55:37;10.90;;;9.93;;
10947;SDS011;5526;42.070;24.752;2022-08-23T03:58:04;10.48;;;9.57;;
10947;SDS011;5526;42.070;24.752;2022-08-23T04:00:33;10.38;;;9.48;;
10947;SDS011;5526;42.070;24.752;2022-08-23T04:02:59;10.38;;;9.48;;
10947;SDS011;5526;42.070;24.752;2022-08-23T04:05:26;9.80;;;9.00;;
10947;SDS011;5526;42.070;24.752;2022-08-23T04:07:53;10.13;;;9.23;;
10947;SDS011;5526;42.070;24.752;2022-08-23T04:10:20;11.63;;;10.50;;
10947;SDS011;5526;42.070;24.752;2022-08-23T04:12:47;14.40;;;13.20;;
10947;SDS011;5526;42.070;24.752;2022-08-23T04:15:16;14.05;;;12.75;;
10947;SDS011;5526;42.070;24.752;2022-08-23T04:17:46;14.02;;;12.77;;
10947;SDS011;5526;42.070;24.752;2022-08-23T04:20:13;15.20;;;13.90;;
10947;SDS011;5526;42.070;24.752;2022-08-23T04:22:40;18.08;;;16.38;;
10947;SDS011;5526;42.070;24.752;2022-08-23T04:25:07;19.30;;;17.30;;
10947;SDS011;5526;42.070;24.752;2022-08-23T04:27:35;20.70;;;18.75;;
10947;SDS011;5526;42.070;24.752;2022-08-23T04:30:02;20.23;;;18.33;;
10947;SDS011;5526;42.070;24.752;2022-08-23T04:32:30;19.85;;;17.85;;
10947;SDS011;5526;42.070;24.752;2022-08-23T04:34:58;19.27;;;17.42;;
10947;SDS011;5526;42.070;24.752;2022-08-23T04:37:25;17.92;;;16.13;;
10947;SDS011;5526;42.070;24.752;2022-08-23T04:39:52;18.02;;;16.25;;
10947;SDS011;5526;42.070;24.752;2022-08-23T04:42:36;16.98;;;15.38;;
10947;SDS011;5526;42.070;24.752;2022-08-23T04:45:05;16.88;;;15.18;;
10947;SDS011;5526;42.070;24.752;2022-08-23T04:47:33;17.75;;;16.00;;
10947;SDS011;5526;42.070;24.752;2022-08-23T04:50:05;16.75;;;15.15;;
10947;SDS011;5526;42.070;24.752;2022-08-23T04:52:33;17.35;;;15.75;;
10947;SDS011;5526;42.070;24.752;2022-08-23T04:55:00;17.23;;;15.52;;
10947;SDS011;5526;42.070;24.752;2022-08-23T04:57:27;19.48;;;17.38;;
10947;SDS011;5526;42.070;24.752;2022-08-23T04:59:54;18.35;;;16.55;;
10947;SDS011;5526;42.070;24.752;2022-08-23T05:02:21;18.75;;;16.77;;
10947;SDS011;5526;42.070;24.752;2022-08-23T05:04:48;18.50;;;16.80;;
10947;SDS011;5526;42.070;24.752;2022-08-23T05:07:16;18.50;;;16.85;;
10947;SDS011;5526;42.070;24.752;2022-08-23T05:09:43;18.30;;;16.40;;
10947;SDS011;5526;42.070;24.752;2022-08-23T05:12:10;17.95;;;16.20;;
10947;SDS011;5526;42.070;24.752;2022-08-23T05:14:37;17.40;;;15.90;;
10947;SDS011;5526;42.070;24.752;2022-08-23T05:17:04;17.48;;;15.85;;
10947;SDS011;5526;42.070;24.752;2022-08-23T05:19:31;16.75;;;15.15;;
10947;SDS011;5526;42.070;24.752;2022-08-23T05:21:59;16.15;;;13.98;;
10947;SDS011;5526;42.070;24.752;2022-08-23T05:24:27;14.88;;;13.43;;
10947;SDS011;5526;42.070;24.752;2022-08-23T05:26:54;14.68;;;13.15;;
10947;SDS011;5526;42.070;24.752;2022-08-23T05:29:21;14.30;;;13.10;;
10947;SDS011;5526;42.070;24.752;2022-08-23T05:31:48;13.40;;;12.20;;
10947;SDS011;5526;42.070;24.752;2022-08-23T05:34:15;15.50;;;12.00;;
10947;SDS011;5526;42.070;24.752;2022-08-23T05:36:42;14.38;;;13.07;;
10947;SDS011;5526;42.070;24.752;2022-08-23T05:39:08;14.48;;;13.07;;
10947;SDS011;5526;42.070;24.752;2022-08-23T05:41:37;14.75;;;13.30;;
10947;SDS011;5526;42.070;24.752;2022-08-23T05:44:05;16.73;;;14.48;;
10947;SDS011;5526;42.070;24.752;2022-08-23T05:46:32;15.27;;;13.60;;
10947;SDS011;5526;42.070;24.752;2022-08-23T05:48:59;14.95;;;13.45;;
10947;SDS011;5526;42.070;24.752;2022-08-23T05:51:27;15.55;;;13.85;;
10947;SDS011;5526;42.070;24.752;2022-08-23T05:53:56;15.23;;;13.82;;
10947;SDS011;5526;42.070;24.752;2022-08-23T05:56:26;15.25;;;13.65;;
10947;SDS011;5526;42.070;24.752;2022-08-23T05:58:57;16.05;;;13.68;;
10947;SDS011;5526;42.070;24.752;2022-08-23T06:01:25;14.95;;;13.52;;
10947;SDS011;5526;42.070;24.752;2022-08-23T06:03:53;14.43;;;13.02;;
10947;SDS011;5526;42.070;24.752;2022-08-23T06:06:20;15.48;;;13.73;;
10947;SDS011;5526;42.070;24.752;2022-08-23T06:08:47;13.98;;;12.75;;
10947;SDS011;5526;42.070;24.752;2022-08-23T06:11:14;16.02;;;12.85;;
10947;SDS011;5526;42.070;24.752;2022-08-23T06:13:43;14.75;;;13.25;;
10947;SDS011;5526;42.070;24.752;2022-08-23T06:16:13;12.95;;;11.85;;
10947;SDS011;5526;42.070;24.752;2022-08-23T06:18:42;13.60;;;12.18;;
10947;SDS011;5526;42.070;24.752;2022-08-23T06:21:10;13.85;;;12.15;;
10947;SDS011;5526;42.070;24.752;2022-08-23T06:23:38;13.38;;;12.27;;
10947;SDS011;5526;42.070;24.752;2022-08-23T06:26:08;12.65;;;11.65;;
10947;SDS011;5526;42.070;24.752;2022-08-23T06:28:36;12.63;;;11.48;;
10947;SDS011;5526;42.070;24.752;2022-08-23T06:31:03;12.35;;;11.23;;
10947;SDS011;5526;42.070;24.752;2022-08-23T06:33:32;12.75;;;11.65;;
10947;SDS011;5526;42.070;24.752;2022-08-23T06:36:00;13.32;;;11.93;;
10947;SDS011;5526;42.070;24.752;2022-08-23T06:38:29;11.80;;;10.77;;
10947;SDS011;5526;42.070;24.752;2022-08-23T06:41:00;11.93;;;10.77;;
10947;SDS011;5526;42.070;24.752;2022-08-23T06:43:28;10.75;;;9.63;;
10947;SDS011;5526;42.070;24.752;2022-08-23T06:46:04;11.77;;;10.65;;
10947;SDS011;5526;42.070;24.752;2022-08-23T06:48:34;11.80;;;10.60;;
10947;SDS011;5526;42.070;24.752;2022-08-23T06:51:01;10.93;;;10.00;;
10947;SDS011;5526;42.070;24.752;2022-08-23T06:53:34;10.48;;;9.57;;
10947;SDS011;5526;42.070;24.752;2022-08-23T06:56:02;10.93;;;9.82;;
10947;SDS011;5526;42.070;24.752;2022-08-23T06:58:29;10.02;;;9.02;;
10947;SDS011;5526;42.070;24.752;2022-08-23T07:01:01;10.70;;;9.63;;
10947;SDS011;5526;42.070;24.752;2022-08-23T07:03:36;9.95;;;9.05;;
10947;SDS011;5526;42.070;24.752;2022-08-23T07:06:03;10.93;;;9.95;;
10947;SDS011;5526;42.070;24.752;2022-08-23T07:08:32;11.23;;;10.23;;
10947;SDS011;5526;42.070;24.752;2022-08-23T07:10:58;11.18;;;10.27;;
10947;SDS011;5526;42.070;24.752;2022-08-23T07:13:27;11.55;;;9.80;;
10947;SDS011;5526;42.070;24.752;2022-08-23T07:15:56;11.25;;;10.15;;
10947;SDS011;5526;42.070;24.752;2022-08-23T07:18:23;10.68;;;9.77;;
10947;SDS011;5526;42.070;24.752;2022-08-23T07:20:55;11.27;;;10.18;;
10947;SDS011;5526;42.070;24.752;2022-08-23T07:23:23;11.38;;;10.25;;
10947;SDS011;5526;42.070;24.752;2022-08-23T07:25:50;12.07;;;10.48;;
10947;SDS011;5526;42.070;24.752;2022-08-23T07:28:17;11.63;;;10.52;;
10947;SDS011;5526;42.070;24.752;2022-08-23T07:30:45;11.82;;;10.63;;
10947;SDS011;5526;42.070;24.752;2022-08-23T07:33:12;11.95;;;10.88;;
10947;SDS011;5526;42.070;24.752;2022-08-23T07:35:44;13.35;;;11.88;;
10947;SDS011;5526;42.070;24.752;2022-08-23T07:38:14;12.35;;;11.23;;
10947;SDS011;5526;42.070;24.752;2022-08-23T07:40:41;12.25;;;11.15;;
10947;SDS011;5526;42.070;24.752;2022-08-23T07:43:08;11.55;;;10.48;;
10947;SDS011;5526;42.070;24.752;2022-08-23T07:45:36;11.35;;;10.18;;
10947;SDS011;5526;42.070;24.752;2022-08-23T07:48:05;11.18;;;10.07;;
10947;SDS011;5526;42.070;24.752;2022-08-23T07:50:32;12.13;;;10.75;;
10947;SDS011;5526;42.070;24.752;2022-08-23T07:52:59;10.90;;;9.90;;
10947;SDS011;5526;42.070;24.752;2022-08-23T07:55:28;11.05;;;10.15;;
10947;SDS011;5526;42.070;24.752;2022-08-23T07:57:55;11.10;;;10.10;;
10947;SDS011;5526;42.070;24.752;2022-08-23T08:00:22;10.93;;;10.00;;
10947;SDS011;5526;42.070;24.752;2022-08-23T08:02:49;9.45;;;8.57;;
10947;SDS011;5526;42.070;24.752;2022-08-23T08:05:16;10.32;;;9.43;;
10947;SDS011;5526;42.070;24.752;2022-08-23T08:07:44;10.10;;;9.25;;
10947;SDS011;5526;42.070;24.752;2022-08-23T08:10:10;8.95;;;8.25;;
10947;SDS011;5526;42.070;24.752;2022-08-23T08:12:39;9.77;;;8.80;;
10947;SDS011;5526;42.070;24.752;2022-08-23T08:15:06;10.43;;;9.52;;
10947;SDS011;5526;42.070;24.752;2022-08-23T08:17:34;9.98;;;9.07;;
10947;SDS011;5526;42.070;24.752;2022-08-23T08:20:01;10.43;;;9.43;;
10947;SDS011;5526;42.070;24.752;2022-08-23T08:22:29;10.52;;;9.55;;
10947;SDS011;5526;42.070;24.752;2022-08-23T08:24:56;9.90;;;9.07;;
10947;SDS011;5526;42.070;24.752;2022-08-23T08:27:23;10.77;;;9.30;;
10947;SDS011;5526;42.070;24.752;2022-08-23T08:29:52;10.43;;;9.52;;
10947;SDS011;5526;42.070;24.752;2022-08-23T08:32:19;10.05;;;9.23;;
10947;SDS011;5526;42.070;24.752;2022-08-23T08:34:46;10.65;;;9.85;;
10947;SDS011;5526;42.070;24.752;2022-08-23T08:37:13;10.52;;;9.65;;
10947;SDS011;5526;42.070;24.752;2022-08-23T08:39:40;10.55;;;9.65;;
10947;SDS011;5526;42.070;24.752;2022-08-23T08:42:17;10.90;;;9.90;;
10947;SDS011;5526;42.070;24.752;2022-08-23T08:44:53;11.48;;;10.38;;
10947;SDS011;5526;42.070;24.752;2022-08-23T08:47:24;10.65;;;9.75;;
10947;SDS011;5526;42.070;24.752;2022-08-23T08:49:59;11.02;;;10.10;;
10947;SDS011;5526;42.070;24.752;2022-08-23T08:52:32;11.18;;;10.25;;
10947;SDS011;5526;42.070;24.752;2022-08-23T08:55:03;11.27;;;10.40;;
10947;SDS011;5526;42.070;24.752;2022-08-23T08:57:39;11.13;;;10.07;;
10947;SDS011;5526;42.070;24.752;2022-08-23T09:00:11;10.90;;;10.05;;
10947;SDS011;5526;42.070;24.752;2022-08-23T09:02:40;10.45;;;9.55;;
10947;SDS011;5526;42.070;24.752;2022-08-23T09:05:10;11.95;;;10.82;;
10947;SDS011;5526;42.070;24.752;2022-08-23T09:07:43;10.82;;;10.00;;
10947;SDS011;5526;42.070;24.752;2022-08-23T09:10:35;12.15;;;11.05;;
10947;SDS011;5526;42.070;24.752;2022-08-23T09:13:22;13.35;;;12.20;;
10947;SDS011;5526;42.070;24.752;2022-08-23T09:16:16;13.57;;;12.38;;
10947;SDS011;5526;42.070;24.752;2022-08-23T09:18:55;13.35;;;12.25;;
10947;SDS011;5526;42.070;24.752;2022-08-23T09:21:22;13.10;;;12.00;;
10947;SDS011;5526;42.070;24.752;2022-08-23T09:23:50;12.35;;;11.35;;
10947;SDS011;5526;42.070;24.752;2022-08-23T09:26:18;12.77;;;11.68;;
10947;SDS011;5526;42.070;24.752;2022-08-23T09:28:47;12.70;;;11.70;;
10947;SDS011;5526;42.070;24.752;2022-08-23T09:34:03;12.35;;;11.20;;
10947;SDS011;5526;42.070;24.752;2022-08-23T09:36:31;12.90;;;11.63;;
10947;SDS011;5526;42.070;24.752;2022-08-23T09:39:02;12.15;;;10.95;;
10947;SDS011;5526;42.070;24.752;2022-08-23T09:41:33;12.32;;;11.20;;
10947;SDS011;5526;42.070;24.752;2022-08-23T09:44:02;12.15;;;11.18;;
10947;SDS011;5526;42.070;24.752;2022-08-23T09:46:31;12.00;;;11.00;;
10947;SDS011;5526;42.070;24.752;2022-08-23T09:52:00;11.90;;;10.90;;
10947;SDS011;5526;42.070;24.752;2022-08-23T09:54:39;13.43;;;12.23;;
10947;SDS011;5526;42.070;24.752;2022-08-23T09:57:07;12.95;;;11.85;;
10947;SDS011;5526;42.070;24.752;2022-08-23T09:59:39;14.50;;;13.13;;
10947;SDS011;5526;42.070;24.752;2022-08-23T10:02:12;13.68;;;12.50;;
10947;SDS011;5526;42.070;24.752;2022-08-23T10:04:43;13.15;;;11.90;;
10947;SDS011;5526;42.070;24.752;2022-08-23T10:07:28;13.60;;;12.30;;
10947;SDS011;5526;42.070;24.752;2022-08-23T10:10:13;13.95;;;12.65;;
10947;SDS011;5526;42.070;24.752;2022-08-23T10:12:44;13.45;;;12.20;;
10947;SDS011;5526;42.070;24.752;2022-08-23T10:15:12;14.20;;;12.82;;
10947;SDS011;5526;42.070;24.752;2022-08-23T10:17:41;12.77;;;11.77;;
10947;SDS011;5526;42.070;24.752;2022-08-23T10:20:22;13.82;;;12.70;;
10947;SDS011;5526;42.070;24.752;2022-08-23T10:23:05;14.25;;;12.88;;
10947;SDS011;5526;42.070;24.752;2022-08-23T10:25:44;13.02;;;11.80;;
10947;SDS011;5526;42.070;24.752;2022-08-23T10:28:19;13.40;;;12.20;;
10947;SDS011;5526;42.070;24.752;2022-08-23T10:31:17;12.55;;;11.45;;
10947;SDS011;5526;42.070;24.752;2022-08-23T10:33:55;12.73;;;11.52;;
10947;SDS011;5526;42.070;24.752;2022-08-23T10:36:44;13.25;;;12.10;;
10947;SDS011;5526;42.070;24.752;2022-08-23T10:39:22;12.95;;;11.95;;
10947;SDS011;5526;42.070;24.752;2022-08-23T10:41:54;12.10;;;11.13;;
10947;SDS011;5526;42.070;24.752;2022-08-23T10:44:30;12.30;;;11.30;;
10947;SDS011;5526;42.070;24.752;2022-08-23T10:49:54;12.63;;;11.63;;
10947;SDS011;5526;42.070;24.752;2022-08-23T10:52:32;12.52;;;11.52;;
10947;SDS011;5526;42.070;24.752;2022-08-23T10:55:08;11.57;;;10.57;;
10947;SDS011;5526;42.070;24.752;2022-08-23T10:57:48;11.30;;;10.30;;
10947;SDS011;5526;42.070;24.752;2022-08-23T11:00:19;12.18;;;11.27;;
10947;SDS011;5526;42.070;24.752;2022-08-23T11:02:51;11.82;;;10.93;;
10947;SDS011;5526;42.070;24.752;2022-08-23T11:05:26;12.85;;;11.60;;
10947;SDS011;5526;42.070;24.752;2022-08-23T11:07:58;12.25;;;11.35;;
10947;SDS011;5526;42.070;24.752;2022-08-23T11:10:33;12.60;;;11.50;;
10947;SDS011;5526;42.070;24.752;2022-08-23T11:13:21;12.70;;;11.77;;
10947;SDS011;5526;42.070;24.752;2022-08-23T11:15:54;12.68;;;11.48;;
10947;SDS011;5526;42.070;24.752;2022-08-23T11:18:35;12.48;;;11.52;;
10947;SDS011;5526;42.070;24.752;2022-08-23T11:21:09;13.00;;;12.00;;
10947;SDS011;5526;42.070;24.752;2022-08-23T11:24:26;12.60;;;11.60;;
10947;SDS011;5526;42.070;24.752;2022-08-23T11:27:04;12.32;;;11.43;;
10947;SDS011;5526;42.070;24.752;2022-08-23T11:29:36;12.00;;;11.10;;
10947;SDS011;5526;42.070;24.752;2022-08-23T11:35:03;12.50;;;11.60;;
10947;SDS011;5526;42.070;24.752;2022-08-23T11:37:48;12.48;;;11.38;;
10947;SDS011;5526;42.070;24.752;2022-08-23T11:43:30;12.73;;;11.73;;
10947;SDS011;5526;42.070;24.752;2022-08-23T11:49:26;13.13;;;12.10;;
10947;SDS011;5526;42.070;24.752;2022-08-23T11:52:15;12.25;;;11.35;;
10947;SDS011;5526;42.070;24.752;2022-08-23T11:54:59;12.38;;;11.50;;
10947;SDS011;5526;42.070;24.752;2022-08-23T11:57:48;13.38;;;12.23;;
10947;SDS011;5526;42.070;24.752;2022-08-23T12:03:32;13.38;;;12.20;;
10947;SDS011;5526;42.070;24.752;2022-08-23T12:12:26;12.90;;;11.80;;
10947;SDS011;5526;42.070;24.752;2022-08-23T12:14:56;12.70;;;11.60;;
10947;SDS011;5526;42.070;24.752;2022-08-23T12:20:36;13.73;;;12.82;;
10947;SDS011;5526;42.070;24.752;2022-08-23T12:23:17;13.80;;;12.70;;
10947;SDS011;5526;42.070;24.752;2022-08-23T12:25:45;13.30;;;12.20;;
10947;SDS011;5526;42.070;24.752;2022-08-23T12:28:30;12.88;;;11.95;;
10947;SDS011;5526;42.070;24.752;2022-08-23T12:31:05;12.40;;;11.43;;
10947;SDS011;5526;42.070;24.752;2022-08-23T12:33:44;13.25;;;12.27;;
10947;SDS011;5526;42.070;24.752;2022-08-23T12:36:20;13.55;;;12.50;;
10947;SDS011;5526;42.070;24.752;2022-08-23T12:38:57;12.77;;;11.82;;
10947;SDS011;5526;42.070;24.752;2022-08-23T12:41:29;13.15;;;11.98;;
10947;SDS011;5526;42.070;24.752;2022-08-23T12:43:58;12.80;;;11.70;;
10947;SDS011;5526;42.070;24.752;2022-08-23T12:46:32;13.43;;;12.40;;
10947;SDS011;5526;42.070;24.752;2022-08-23T12:49:08;14.20;;;13.00;;
10947;SDS011;5526;42.070;24.752;2022-08-23T12:51:48;14.20;;;13.10;;
10947;SDS011;5526;42.070;24.752;2022-08-23T12:54:16;13.70;;;12.50;;
10947;SDS011;5526;42.070;24.752;2022-08-23T12:56:46;13.80;;;12.73;;
10947;SDS011;5526;42.070;24.752;2022-08-23T12:59:31;13.57;;;12.52;;
10947;SDS011;5526;42.070;24.752;2022-08-23T13:02:02;14.00;;;12.77;;
10947;SDS011;5526;42.070;24.752;2022-08-23T13:04:33;14.57;;;13.35;;
10947;SDS011;5526;42.070;24.752;2022-08-23T13:07:03;13.00;;;12.10;;
10947;SDS011;5526;42.070;24.752;2022-08-23T13:09:35;13.35;;;12.23;;
10947;SDS011;5526;42.070;24.752;2022-08-23T13:12:04;12.55;;;11.50;;
10947;SDS011;5526;42.070;24.752;2022-08-23T13:14:34;14.30;;;13.20;;
10947;SDS011;5526;42.070;24.752;2022-08-23T13:17:15;13.82;;;12.82;;
10947;SDS011;5526;42.070;24.752;2022-08-23T13:19:47;13.70;;;12.50;;
10947;SDS011;5526;42.070;24.752;2022-08-23T13:22:20;13.88;;;12.77;;
10947;SDS011;5526;42.070;24.752;2022-08-23T13:25:05;14.73;;;13.60;;
10947;SDS011;5526;42.070;24.752;2022-08-23T13:27:35;13.60;;;12.43;;
10947;SDS011;5526;42.070;24.752;2022-08-23T13:30:19;13.35;;;12.23;;
10947;SDS011;5526;42.070;24.752;2022-08-23T13:32:49;13.23;;;12.32;;
10947;SDS011;5526;42.070;24.752;2022-08-23T13:35:28;13.85;;;12.73;;
10947;SDS011;5526;42.070;24.752;2022-08-23T13:37:59;12.63;;;11.63;;
10947;SDS011;5526;42.070;24.752;2022-08-23T13:40:38;13.10;;;12.20;;
10947;SDS011;5526;42.070;24.752;2022-08-23T13:43:08;13.52;;;12.63;;
10947;SDS011;5526;42.070;24.752;2022-08-23T13:45:43;13.80;;;12.63;;
10947;SDS011;5526;42.070;24.752;2022-08-23T13:48:13;13.02;;;12.02;;
10947;SDS011;5526;42.070;24.752;2022-08-23T13:50:45;12.88;;;11.93;;
10947;SDS011;5526;42.070;24.752;2022-08-23T13:53:13;13.15;;;12.10;;
10947;SDS011;5526;42.070;24.752;2022-08-23T13:55:41;12.70;;;11.70;;
10947;SDS011;5526;42.070;24.752;2022-08-23T13:58:10;15.18;;;13.93;;
10947;SDS011;5526;42.070;24.752;2022-08-23T14:00:39;13.77;;;12.77;;
10947;SDS011;5526;42.070;24.752;2022-08-23T14:03:06;13.82;;;12.77;;
10947;SDS011;5526;42.070;24.752;2022-08-23T14:05:33;13.73;;;12.73;;
10947;SDS011;5526;42.070;24.752;2022-08-23T14:08:02;14.15;;;12.95;;
10947;SDS011;5526;42.070;24.752;2022-08-23T14:10:29;14.38;;;13.25;;
10947;SDS011;5526;42.070;24.752;2022-08-23T14:12:56;13.65;;;12.52;;
10947;SDS011;5526;42.070;24.752;2022-08-23T14:15:24;13.13;;;12.15;;
10947;SDS011;5526;42.070;24.752;2022-08-23T14:17:51;13.40;;;12.32;;
10947;SDS011;5526;42.070;24.752;2022-08-23T14:20:20;13.45;;;12.27;;
10947;SDS011;5526;42.070;24.752;2022-08-23T14:22:49;13.07;;;12.10;;
10947;SDS011;5526;42.070;24.752;2022-08-23T14:25:17;13.57;;;12.45;;
10947;SDS011;5526;42.070;24.752;2022-08-23T14:27:45;14.25;;;13.05;;
10947;SDS011;5526;42.070;24.752;2022-08-23T14:30:21;14.18;;;12.82;;
10947;SDS011;5526;42.070;24.752;2022-08-23T14:32:51;14.45;;;13.38;;
10947;SDS011;5526;42.070;24.752;2022-08-23T14:35:18;13.48;;;12.45;;
10947;SDS011;5526;42.070;24.752;2022-08-23T14:37:45;13.23;;;12.23;;
10947;SDS011;5526;42.070;24.752;2022-08-23T14:40:12;14.85;;;13.73;;
10947;SDS011;5526;42.070;24.752;2022-08-23T14:42:42;15.70;;;14.32;;
10947;SDS011;5526;42.070;24.752;2022-08-23T14:45:10;15.05;;;13.95;;
10947;SDS011;5526;42.070;24.752;2022-08-23T14:47:37;15.13;;;13.82;;
10947;SDS011;5526;42.070;24.752;2022-08-23T14:50:06;15.55;;;14.40;;
10947;SDS011;5526;42.070;24.752;2022-08-23T14:52:35;15.48;;;14.32;;
10947;SDS011;5526;42.070;24.752;2022-08-23T14:55:04;16.17;;;14.57;;
10947;SDS011;5526;42.070;24.752;2022-08-23T14:57:32;15.18;;;13.95;;
10947;SDS011;5526;42.070;24.752;2022-08-23T15:00:00;16.02;;;14.73;;
10947;SDS011;5526;42.070;24.752;2022-08-23T15:02:27;16.20;;;14.70;;
10947;SDS011;5526;42.070;24.752;2022-08-23T15:04:55;16.17;;;14.57;;
10947;SDS011;5526;42.070;24.752;2022-08-23T15:07:22;15.20;;;13.90;;
10947;SDS011;5526;42.070;24.752;2022-08-23T15:09:50;15.73;;;14.43;;
10947;SDS011;5526;42.070;24.752;2022-08-23T15:12:19;15.82;;;14.48;;
10947;SDS011;5526;42.070;24.752;2022-08-23T15:14:47;15.55;;;14.15;;